Time;durP1;ratioP1;P1;durP2;ratioP2;P2;SDS_P1;SDS_P2;PMS_P1;PMS_P2;Temp;Humidity;BMP_temperature;BMP_pressure;BME280_temperature;BME280_humidity;BME280_pressure;Samples;Min_cycle;Max_cycle;Signal;HPM_P1;HPM_P2
2022/04/05 00:00:10;;;;;;;10.20;5.95;;;;;;;6.94;53.68;99321.63;1087846;54;20042;-80
2022/04/05 00:01:14;;;;;;;8.73;6.00;;;;;;;6.86;53.66;99324.97;1088137;54;20038;-78
2022/04/05 00:02:16;;;;;;;10.43;6.15;;;;;;;6.94;53.50;99326.94;1088124;54;20035;-79
2022/04/05 00:03:22;;;;;;;7.88;5.75;;;;;;;7.03;53.40;99326.09;1088122;54;20053;-80
2022/04/05 00:04:24;;;;;;;7.45;5.22;;;;;;;7.15;53.10;99323.31;1088092;54;20041;-80
2022/04/05 00:05:28;;;;;;;7.20;5.22;;;;;;;7.21;53.33;99314.75;1088057;54;20073;-79
2022/04/05 00:06:30;;;;;;;10.23;5.95;;;;;;;7.09;53.17;99310.56;1088116;54;20061;-79
2022/04/05 00:07:34;;;;;;;8.48;6.10;;;;;;;7.09;53.21;99323.84;1088554;39;20213;-79
2022/04/05 00:51:10;;;;;;;9.27;6.30;;;;;;;6.55;56.63;99302.97;1086921;54;20045;-80
2022/04/05 00:52:13;;;;;;;7.72;5.68;;;;;;;6.52;56.72;99303.25;1086971;39;20433;-80
2022/04/05 00:53:18;;;;;;;9.82;6.47;;;;;;;6.52;56.59;99298.78;1086741;54;20034;-79
2022/04/05 00:54:22;;;;;;;10.20;5.97;;;;;;;6.55;56.96;99295.00;1087637;54;20065;-80
2022/04/05 00:55:27;;;;;;;10.05;6.80;;;;;;;6.47;57.33;99292.19;1087821;54;20042;-80
2022/04/05 00:56:33;;;;;;;8.75;6.60;;;;;;;6.49;57.46;99301.69;1087770;54;20027;-80
2022/04/05 00:57:37;;;;;;;12.27;7.30;;;;;;;6.47;57.82;99302.81;1087973;54;20046;-81
2022/04/05 00:58:40;;;;;;;9.52;6.40;;;;;;;6.50;57.97;99303.38;1086869;54;20041;-79
2022/04/05 00:59:46;;;;;;;8.85;5.88;;;;;;;6.51;57.96;99307.72;1086684;54;20108;-80
2022/04/05 01:00:48;;;;;;;10.45;6.40;;;;;;;6.48;58.09;99293.88;1087818;46;20042;-80
2022/04/05 01:01:56;;;;;;;9.65;6.47;;;;;;;6.43;58.46;99299.59;1087919;54;20035;-80
2022/04/05 01:02:59;;;;;;;9.68;6.50;;;;;;;6.44;58.69;99303.09;1087196;54;20039;-80
2022/04/05 01:04:05;;;;;;;10.38;5.88;;;;;;;6.39;58.81;99299.03;1087000;54;20068;-80
2022/04/05 01:05:08;;;;;;;9.80;6.68;;;;;;;6.42;59.23;99297.91;1087036;54;20061;-80
2022/04/05 01:06:15;;;;;;;9.18;6.00;;;;;;;6.34;59.47;99295.94;1086897;54;20059;-80
2022/04/05 01:07:17;;;;;;;12.07;6.03;;;;;;;6.30;60.00;99293.69;1086976;54;20394;-80
2022/04/05 01:08:23;;;;;;;9.60;6.50;;;;;;;6.30;59.73;99297.19;1087672;46;20042;-78
2022/04/05 01:09:26;;;;;;;7.85;6.22;;;;;;;6.28;60.35;99299.16;1088373;39;20329;-78
2022/04/05 01:10:31;;;;;;;9.85;6.68;;;;;;;6.30;60.53;99293.69;1087370;54;20038;-80
2022/04/05 01:11:33;;;;;;;12.60;6.45;;;;;;;6.26;60.45;99298.44;1086855;46;20043;-80
2022/04/05 01:12:37;;;;;;;8.02;5.72;;;;;;;6.28;60.76;99293.84;1086797;54;20034;-80
2022/04/05 01:13:39;;;;;;;10.25;6.50;;;;;;;6.27;60.62;99289.50;1086898;54;20086;-79
2022/04/05 01:14:44;;;;;;;8.60;6.07;;;;;;;6.20;61.04;99298.97;1087309;54;20569;-80
2022/04/05 01:15:48;;;;;;;11.10;6.88;;;;;;;6.23;61.21;99290.75;1087614;54;20066;-80
2022/04/05 01:16:50;;;;;;;9.73;6.40;;;;;;;6.18;60.95;99287.66;1087965;54;20038;-79
2022/04/05 01:17:55;;;;;;;9.82;6.88;;;;;;;6.16;61.30;99287.81;1088002;54;20030;-80
2022/04/05 01:18:57;;;;;;;11.60;6.55;;;;;;;6.16;61.48;99285.16;1088163;46;20146;-79
2022/04/05 01:20:02;;;;;;;8.80;6.10;;;;;;;6.15;61.45;99277.31;1088008;54;20098;-81
2022/04/05 01:21:04;;;;;;;9.95;6.43;;;;;;;6.23;61.88;99288.94;1089862;46;20065;-80
2022/04/05 01:22:11;;;;;;;9.98;6.13;;;;;;;6.15;61.49;99280.81;1090841;46;20034;-80
2022/04/05 01:23:15;;;;;;;7.93;6.32;;;;;;;6.11;61.82;99291.84;1088060;54;20017;-80
2022/04/05 01:24:19;;;;;;;10.93;6.25;;;;;;;6.19;62.08;99290.16;1090319;46;20034;-80
2022/04/05 01:25:23;;;;;;;11.20;6.30;;;;;;;6.23;61.71;99288.09;1088050;54;20018;-80
2022/04/05 01:26:25;;;;;;;11.48;6.38;;;;;;;6.26;62.07;99282.50;1087927;54;20029;-80
2022/04/05 01:27:30;;;;;;;8.13;5.90;;;;;;;6.34;62.03;99282.66;1089497;47;20038;-80
2022/04/05 01:28:31;;;;;;;8.80;6.07;;;;;;;6.27;62.14;99280.72;1089036;46;20035;-80
2022/04/05 01:29:36;;;;;;;9.90;6.07;;;;;;;6.17;62.31;99275.34;1087402;54;20071;-80
2022/04/05 01:30:37;;;;;;;9.38;6.43;;;;;;;6.21;62.44;99276.78;1087141;54;20037;-79
2022/04/05 01:31:44;;;;;;;10.30;6.30;;;;;;;6.38;61.81;99281.44;1087355;46;20022;-79
2022/04/05 01:32:48;;;;;;;8.80;6.25;;;;;;;6.31;62.16;99271.47;1087354;54;20026;-80
2022/04/05 01:33:49;;;;;;;11.82;6.72;;;;;;;6.14;61.61;99286.25;1087842;54;20073;-80
2022/04/05 01:34:53;;;;;;;10.63;6.60;;;;;;;6.16;61.86;99289.59;1087647;54;20011;-81
2022/04/05 01:35:55;;;;;;;9.38;6.43;;;;;;;6.16;62.25;99279.84;1087070;54;20031;-81
2022/04/05 01:37:01;;;;;;;9.65;6.57;;;;;;;6.15;62.46;99279.94;1087862;54;20035;-80
2022/04/05 01:38:06;;;;;;;9.88;7.07;;;;;;;6.18;62.64;99282.34;1087834;54;20030;-81
2022/04/05 01:39:08;;;;;;;9.77;5.82;;;;;;;6.18;62.54;99282.34;1087845;54;20034;-80
2022/04/05 01:40:15;;;;;;;9.82;6.47;;;;;;;6.17;62.74;99283.31;1087567;54;20039;-79
2022/04/05 01:41:17;;;;;;;8.55;5.85;;;;;;;6.17;62.30;99285.97;1086972;54;20572;-80
2022/04/05 01:42:21;;;;;;;9.10;5.68;;;;;;;6.32;61.86;99276.69;1087167;54;20034;-81
2022/04/05 01:43:23;;;;;;;8.88;5.75;;;;;;;6.28;62.21;99274.44;1087042;54;20042;-81
2022/04/05 01:44:27;;;;;;;7.68;5.88;;;;;;;6.22;62.60;99281.13;1087057;54;20038;-80
2022/04/05 01:45:29;;;;;;;10.32;6.53;;;;;;;6.25;62.31;99280.81;1087278;54;20030;-80
2022/04/05 01:46:33;;;;;;;8.45;6.20;;;;;;;6.26;61.93;99279.84;1087178;54;20061;-80
2022/04/05 01:47:38;;;;;;;10.10;6.43;;;;;;;6.25;61.96;99278.16;1087057;54;20038;-80
2022/04/05 01:48:42;;;;;;;10.95;6.97;;;;;;;6.28;61.84;99277.09;1087373;54;20010;-80
2022/04/05 01:49:45;;;;;;;10.95;5.90;;;;;;;6.28;62.19;99269.94;1087550;54;20038;-80
2022/04/05 01:50:49;;;;;;;10.18;6.10;;;;;;;6.27;61.89;99276.22;1087069;54;20045;-81
2022/04/05 01:51:51;;;;;;;9.93;6.47;;;;;;;6.24;61.97;99279.16;1087246;54;20568;-80
2022/04/05 01:52:55;;;;;;;9.05;6.10;;;;;;;6.26;61.90;99273.72;1087476;54;20608;-80
2022/04/05 01:53:59;;;;;;;10.80;6.35;;;;;;;6.28;62.38;99266.47;1090281;31;20714;-79
2022/04/05 01:55:03;;;;;;;10.52;6.70;;;;;;;6.25;62.07;99267.56;1087757;54;20094;-80
2022/04/05 01:56:07;;;;;;;10.13;6.50;;;;;;;6.21;62.29;99267.00;1087748;54;20034;-80
2022/04/05 01:57:12;;;;;;;8.27;6.28;;;;;;;6.23;62.44;99266.88;1087051;54;20044;-80
2022/04/05 01:58:13;;;;;;;7.80;5.78;;;;;;;6.39;62.16;99276.94;1086432;54;20553;-80
2022/04/05 01:59:19;;;;;;;8.40;6.43;;;;;;;6.24;62.30;99277.34;1086466;54;20042;-80
2022/04/05 02:00:20;;;;;;;8.85;6.03;;;;;;;6.19;62.95;99268.09;1086843;54;20058;-80
2022/04/05 02:01:24;;;;;;;10.82;6.75;;;;;;;6.18;62.72;99277.91;1086605;54;20046;-80
2022/04/05 02:02:28;;;;;;;7.95;6.07;;;;;;;6.15;62.71;99269.34;1086661;54;20069;-80
2022/04/05 02:03:30;;;;;;;11.68;7.45;;;;;;;6.23;62.90;99277.50;1087180;54;20026;-79
2022/04/05 02:04:34;;;;;;;11.70;6.05;;;;;;;6.26;62.80;99268.41;1088459;46;20026;-80
2022/04/05 02:05:36;;;;;;;8.80;5.90;;;;;;;6.12;63.09;99277.59;1089992;46;20042;-79
2022/04/05 02:06:41;;;;;;;9.30;6.70;;;;;;;6.11;63.35;99271.44;1088098;54;20034;-79
2022/04/05 02:07:42;;;;;;;8.77;6.07;;;;;;;6.15;63.25;99264.03;1088177;54;20061;-79
2022/04/05 02:08:46;;;;;;;13.50;6.63;;;;;;;6.20;63.48;99270.63;1090205;46;20045;-79
2022/04/05 02:09:52;;;;;;;11.68;6.00;;;;;;;6.12;63.69;99257.19;1087819;54;20019;-79
2022/04/05 02:10:54;;;;;;;9.68;6.20;;;;;;;6.17;63.55;99262.09;1088116;54;20047;-80
2022/04/05 02:12:13;;;;;;;10.43;6.50;;;;;;;6.01;64.35;99266.09;1087836;54;20030;-79
2022/04/05 02:13:15;;;;;;;9.32;6.40;;;;;;;6.14;64.09;99254.41;1088013;54;20031;-80
2022/04/05 02:14:19;;;;;;;10.35;6.18;;;;;;;6.01;64.71;99260.78;1086916;54;20030;-79
2022/04/05 02:15:21;;;;;;;13.82;7.20;;;;;;;5.96;65.03;99267.44;1086513;54;20038;-79
2022/04/05 02:16:26;;;;;;;11.60;6.93;;;;;;;5.94;65.13;99264.94;1086466;54;20035;-79
2022/04/05 02:17:27;;;;;;;10.10;6.43;;;;;;;5.87;65.60;99261.13;1088051;39;20479;-79
2022/04/05 02:18:32;;;;;;;10.65;6.43;;;;;;;5.87;65.62;99269.06;1086291;54;20121;-79
2022/04/05 02:19:38;;;;;;;9.68;6.85;;;;;;;5.94;65.44;99271.06;1085970;54;20619;-79
2022/04/05 02:20:40;;;;;;;10.43;6.63;;;;;;;6.01;65.56;99271.41;1086370;46;20061;-79
2022/04/05 02:21:44;;;;;;;9.13;6.00;;;;;;;5.96;65.91;99283.38;1086325;54;20034;-79
2022/04/05 02:22:45;;;;;;;11.07;6.72;;;;;;;5.89;66.59;99283.91;1086156;54;20042;-80
2022/04/05 02:23:49;;;;;;;8.63;5.72;;;;;;;5.99;66.16;99280.44;1085668;54;20026;-78
2022/04/05 02:24:52;;;;;;;10.77;6.88;;;;;;;5.84;66.59;99285.28;1085971;54;20074;-79
2022/04/05 02:25:56;;;;;;;8.55;6.00;;;;;;;5.77;66.93;99285.78;1085791;54;20176;-79
2022/04/05 02:27:01;;;;;;;9.90;6.30;;;;;;;5.73;67.20;99287.03;1085711;54;20039;-78
2022/04/05 02:28:06;;;;;;;9.73;6.43;;;;;;;5.79;67.25;99285.69;1085312;54;20063;-78
2022/04/05 02:29:08;;;;;;;12.32;6.93;;;;;;;5.77;67.59;99288.44;1085670;54;20043;-79
2022/04/05 02:30:14;;;;;;;12.13;6.95;;;;;;;5.78;67.87;99287.47;1086618;54;20026;-80
2022/04/05 02:31:16;;;;;;;10.18;6.32;;;;;;;5.74;67.99;99279.91;1086966;39;20437;-79
2022/04/05 02:32:20;;;;;;;9.75;6.32;;;;;;;5.74;68.15;99277.25;1086752;54;20106;-78
2022/04/05 02:33:22;;;;;;;10.27;6.18;;;;;;;5.79;68.21;99280.38;1086718;54;20034;-79
2022/04/05 02:34:26;;;;;;;9.75;7.18;;;;;;;5.69;68.37;99274.19;1086675;54;20034;-79
2022/04/05 02:35:27;;;;;;;9.45;6.38;;;;;;;5.70;68.46;99262.59;1086238;54;20069;-79
2022/04/05 02:36:31;;;;;;;10.25;7.63;;;;;;;5.75;68.50;99273.63;1086351;54;20038;-79
2022/04/05 02:37:35;;;;;;;10.27;6.93;;;;;;;5.72;68.64;99272.09;1086197;54;20065;-79
2022/04/05 02:38:37;;;;;;;8.48;6.32;;;;;;;5.85;68.54;99274.53;1085793;54;20027;-79
2022/04/05 02:39:41;;;;;;;8.90;5.90;;;;;;;5.91;68.13;99275.81;1086938;46;20035;-79
2022/04/05 02:40:42;;;;;;;10.73;6.75;;;;;;;5.69;68.87;99272.34;1086717;54;20078;-79
2022/04/05 02:41:47;;;;;;;9.65;5.85;;;;;;;5.68;69.26;99281.28;1086603;54;20046;-78
2022/04/05 02:42:51;;;;;;;11.35;6.55;;;;;;;5.69;69.33;99282.97;1087241;54;20031;-78
2022/04/05 02:43:55;;;;;;;9.88;6.85;;;;;;;5.60;70.02;99291.72;1087087;54;20034;-78
2022/04/05 02:44:56;;;;;;;14.68;7.43;;;;;;;5.55;70.27;99280.66;1086905;54;20037;-78
2022/04/05 02:46:00;;;;;;;11.20;6.63;;;;;;;5.58;70.34;99275.94;1087065;54;20038;-79
2022/04/05 02:47:04;;;;;;;10.63;6.78;;;;;;;5.55;70.76;99285.97;1086961;54;20086;-79
2022/04/05 02:48:08;;;;;;;10.60;7.13;;;;;;;5.63;70.46;99280.84;1087071;54;20059;-79
2022/04/05 02:49:13;;;;;;;8.80;6.63;;;;;;;5.68;70.10;99281.28;1087465;46;20038;-79
2022/04/05 02:50:18;;;;;;;10.40;6.18;;;;;;;5.75;69.73;99276.28;1087426;47;20065;-79
2022/04/05 02:51:19;;;;;;;9.30;6.55;;;;;;;5.63;70.35;99278.19;1087283;54;20030;-79
2022/04/05 02:52:23;;;;;;;11.80;7.43;;;;;;;5.62;70.29;99271.22;1087435;54;20098;-79
2022/04/05 02:53:25;;;;;;;12.15;7.22;;;;;;;5.54;70.67;99269.22;1087719;54;20065;-79
2022/04/05 02:54:29;;;;;;;8.95;6.47;;;;;;;5.48;70.89;99269.75;1087666;54;20076;-78
2022/04/05 02:55:30;;;;;;;11.93;6.82;;;;;;;5.61;70.47;99278.34;1087528;54;20034;-79
2022/04/05 02:56:34;;;;;;;10.20;7.00;;;;;;;5.60;70.39;99273.16;1087638;54;20121;-78
2022/04/05 02:57:36;;;;;;;9.32;6.90;;;;;;;5.60;70.75;99279.31;1087691;54;20038;-79
2022/04/05 02:58:43;;;;;;;12.43;7.05;;;;;;;5.54;71.01;99269.22;1087450;54;20072;-78
2022/04/05 02:59:45;;;;;;;10.32;6.65;;;;;;;5.53;71.08;99275.47;1088925;47;20046;-78
2022/04/05 03:00:49;;;;;;;9.20;6.63;;;;;;;5.62;70.88;99279.16;1087777;54;20043;-78
2022/04/05 03:01:51;;;;;;;9.13;6.35;;;;;;;5.62;70.97;99274.69;1087702;54;20034;-79
2022/04/05 03:02:55;;;;;;;12.20;6.70;;;;;;;5.54;71.33;99273.69;1091793;39;20556;-79
2022/04/05 03:03:56;;;;;;;11.35;7.15;;;;;;;5.52;71.77;99275.63;1087791;54;20046;-78
2022/04/05 03:05:01;;;;;;;9.43;6.57;;;;;;;5.57;71.70;99281.38;1087796;54;20031;-79
2022/04/05 03:06:03;;;;;;;11.90;7.28;;;;;;;5.51;71.71;99279.25;1087876;54;20170;-78
2022/04/05 03:07:07;;;;;;;9.70;6.82;;;;;;;5.50;71.82;99282.84;1087793;39;20472;-79
2022/04/05 03:08:08;;;;;;;10.70;6.95;;;;;;;5.60;71.56;99278.44;1087837;54;20057;-79
2022/04/05 03:09:12;;;;;;;11.27;7.05;;;;;;;5.52;72.10;99283.56;1087514;54;20039;-80
2022/04/05 03:10:14;;;;;;;11.63;7.72;;;;;;;5.54;71.90;99284.28;1087624;54;20062;-78
2022/04/05 03:11:18;;;;;;;10.45;6.95;;;;;;;5.54;72.06;99281.63;1087769;54;20030;-79
2022/04/05 03:12:19;;;;;;;14.00;7.35;;;;;;;5.54;72.00;99279.81;1087718;54;20615;-79
2022/04/05 03:13:24;;;;;;;7.55;5.93;;;;;;;5.57;72.13;99276.91;1087443;54;20030;-78
2022/04/05 03:14:28;;;;;;;10.70;6.88;;;;;;;5.66;71.82;99272.63;1087762;54;20038;-78
2022/04/05 03:15:32;;;;;;;9.00;6.72;;;;;;;5.53;72.17;99272.00;1087724;54;20037;-80
2022/04/05 03:16:37;;;;;;;9.80;6.53;;;;;;;5.52;72.47;99280.91;1089395;39;20488;-78
2022/04/05 03:17:45;;;;;;;12.05;7.25;;;;;;;5.40;72.91;99283.63;1088036;54;20050;-79
2022/04/05 03:18:47;;;;;;;10.38;7.03;;;;;;;5.42;72.45;99271.09;1087715;54;20761;-78
2022/04/05 03:19:51;;;;;;;9.95;6.70;;;;;;;5.57;72.13;99278.72;1088443;31;20733;-78
2022/04/05 03:20:53;;;;;;;11.60;6.95;;;;;;;5.49;72.62;99275.88;1088036;54;20046;-78
2022/04/05 03:21:57;;;;;;;11.80;6.78;;;;;;;5.44;72.86;99270.97;1088020;54;20058;-79
2022/04/05 03:23:00;;;;;;;11.40;6.78;;;;;;;5.52;72.88;99278.28;1087846;54;20038;-77
2022/04/05 03:24:05;;;;;;;11.20;7.25;;;;;;;5.39;73.13;99271.34;1087821;54;20026;-79
2022/04/05 03:25:07;;;;;;;12.38;7.18;;;;;;;5.46;72.80;99274.31;1087649;54;20031;-79
2022/04/05 03:26:11;;;;;;;10.38;7.13;;;;;;;5.41;72.89;99273.91;1087466;54;20027;-80
2022/04/05 03:27:13;;;;;;;9.13;7.28;;;;;;;5.42;73.07;99272.94;1087682;54;20047;-78
2022/04/05 03:28:18;;;;;;;10.52;6.95;;;;;;;5.58;72.49;99270.63;1087716;54;20026;-79
2022/04/05 03:29:20;;;;;;;9.82;6.57;;;;;;;5.63;72.53;99257.81;1087797;54;20033;-79
2022/04/05 03:30:26;;;;;;;11.02;6.82;;;;;;;5.46;72.26;99261.94;1087868;54;20431;-79
2022/04/05 03:31:28;;;;;;;10.55;6.60;;;;;;;5.51;72.10;99260.69;1087772;54;20548;-79
2022/04/05 03:32:32;;;;;;;9.50;6.68;;;;;;;5.51;72.63;99268.63;1087707;54;20034;-77
2022/04/05 03:33:34;;;;;;;11.25;6.43;;;;;;;5.44;72.94;99263.00;1087569;54;20600;-79
2022/04/05 03:34:38;;;;;;;9.70;6.78;;;;;;;5.43;73.03;99267.47;1089080;39;20461;-80
2022/04/05 03:35:39;;;;;;;12.13;6.80;;;;;;;5.40;73.19;99264.25;1087805;54;20611;-78
2022/04/05 03:36:44;;;;;;;11.32;6.95;;;;;;;5.44;73.05;99265.66;1087774;54;20037;-78
2022/04/05 03:37:45;;;;;;;10.95;6.60;;;;;;;5.39;73.33;99266.06;1087679;54;20627;-79
2022/04/05 03:38:49;;;;;;;9.85;7.05;;;;;;;5.36;73.54;99261.03;1087681;46;20030;-79
2022/04/05 03:39:51;;;;;;;9.88;6.63;;;;;;;5.44;73.20;99263.88;1088397;39;20456;-78
2022/04/05 03:40:58;;;;;;;9.73;7.25;;;;;;;5.38;73.85;99259.09;1087816;54;20053;-77
2022/04/05 03:41:59;;;;;;;10.05;6.43;;;;;;;5.41;73.84;99269.41;1087546;54;20065;-77
2022/04/05 03:43:04;;;;;;;12.43;6.85;;;;;;;5.35;74.00;99259.34;1087783;54;20033;-80
2022/04/05 03:44:07;;;;;;;9.82;6.38;;;;;;;5.39;73.98;99260.75;1087642;54;20038;-77
2022/04/05 03:45:11;;;;;;;9.80;6.25;;;;;;;5.40;73.97;99258.94;1087496;54;20034;-77
2022/04/05 03:46:15;;;;;;;10.32;6.35;;;;;;;5.38;73.93;99261.75;1088370;47;20027;-77
2022/04/05 03:47:20;;;;;;;11.02;6.97;;;;;;;5.31;74.17;99263.22;1087879;54;20043;-77
2022/04/05 03:48:26;;;;;;;12.38;7.22;;;;;;;5.31;74.21;99257.91;1087908;54;20099;-77
2022/04/05 03:49:27;;;;;;;9.65;6.35;;;;;;;5.32;73.91;99246.34;1087843;54;20037;-80
2022/04/05 03:50:31;;;;;;;10.35;7.68;;;;;;;5.41;73.61;99253.50;1088176;54;20022;-77
2022/04/05 03:51:33;;;;;;;10.40;7.18;;;;;;;5.37;74.24;99257.41;1088198;54;20022;-77
2022/04/05 03:52:37;;;;;;;9.60;6.50;;;;;;;5.41;73.83;99256.16;1089969;46;20098;-76
2022/04/05 03:53:39;;;;;;;9.82;6.63;;;;;;;5.43;73.75;99256.06;1089896;46;20034;-78
2022/04/05 03:54:43;;;;;;;10.68;6.65;;;;;;;5.37;73.78;99253.91;1088299;54;20050;-77
2022/04/05 03:55:44;;;;;;;9.95;6.97;;;;;;;5.41;73.90;99250.88;1088291;54;20042;-77
2022/04/05 03:56:49;;;;;;;11.02;6.60;;;;;;;5.33;73.54;99245.38;1088221;54;20030;-77
2022/04/05 03:57:50;;;;;;;10.77;6.60;;;;;;;5.36;73.10;99258.38;1088078;54;20027;-78
2022/04/05 03:58:54;;;;;;;10.65;6.70;;;;;;;5.35;73.08;99250.53;1088145;54;20592;-77
2022/04/05 03:59:56;;;;;;;11.93;7.32;;;;;;;5.36;72.99;99255.72;1087975;54;20042;-78
2022/04/05 04:01:00;;;;;;;10.20;6.10;;;;;;;5.45;73.00;99254.94;1087718;54;20702;-76
2022/04/05 04:02:04;;;;;;;9.35;6.28;;;;;;;5.42;72.95;99255.19;1087942;54;20033;-78
2022/04/05 04:03:08;;;;;;;10.23;6.13;;;;;;;5.37;73.50;99265.38;1087470;54;20039;-79
2022/04/05 04:04:10;;;;;;;11.10;7.00;;;;;;;5.36;73.39;99255.72;1087898;54;20042;-77
2022/04/05 04:05:20;;;;;;;11.80;6.60;;;;;;;5.40;73.32;99256.31;1087324;54;20064;-79
2022/04/05 04:06:22;;;;;;;10.73;7.00;;;;;;;5.33;73.28;99258.63;1087086;54;20042;-78
2022/04/05 04:07:26;;;;;;;8.40;6.22;;;;;;;5.44;73.08;99258.56;1087247;54;20035;-78
2022/04/05 04:08:28;;;;;;;9.73;6.50;;;;;;;5.41;73.31;99253.50;1087644;54;20287;-78
2022/04/05 04:09:32;;;;;;;11.45;6.50;;;;;;;5.41;73.22;99261.47;1087264;54;20031;-79
2022/04/05 04:10:36;;;;;;;10.43;6.32;;;;;;;5.42;73.34;99260.50;1087126;54;20035;-77
2022/04/05 04:11:40;;;;;;;8.50;6.07;;;;;;;5.47;72.89;99257.44;1087303;54;20077;-77
2022/04/05 04:12:44;;;;;;;9.15;6.32;;;;;;;5.41;73.68;99269.41;1087551;54;20038;-78
2022/04/05 04:13:45;;;;;;;9.88;6.55;;;;;;;5.44;73.56;99263.00;1087873;54;20038;-78
2022/04/05 04:14:49;;;;;;;11.60;7.25;;;;;;;5.32;74.15;99262.25;1088055;46;20034;-77
2022/04/05 04:15:51;;;;;;;10.10;6.60;;;;;;;5.36;73.87;99263.69;1087643;54;20038;-77
2022/04/05 04:16:55;;;;;;;14.23;6.30;;;;;;;5.43;73.62;99261.34;1089046;39;20535;-77
2022/04/05 04:17:59;;;;;;;8.90;6.22;;;;;;;5.37;74.07;99261.84;1089380;46;20038;-78
2022/04/05 04:19:03;;;;;;;9.48;6.20;;;;;;;5.44;73.82;99257.69;1087650;54;20041;-77
2022/04/05 04:20:08;;;;;;;10.35;6.47;;;;;;;5.40;74.17;99261.59;1088084;54;20041;-78
2022/04/05 04:21:22;;;;;;;10.80;7.35;;;;;;;5.37;74.00;99262.72;1088168;54;20042;-78
2022/04/05 04:22:38;;;;;;;9.50;6.38;;;;;;;5.47;74.02;99260.97;1088134;54;20038;-78
2022/04/05 04:23:41;;;;;;;11.60;6.35;;;;;;;5.39;74.05;99254.63;1087674;54;20067;-78
2022/04/05 04:24:45;;;;;;;9.32;6.32;;;;;;;5.47;74.02;99257.44;1087380;54;20035;-78
2022/04/05 04:25:47;;;;;;;8.38;6.07;;;;;;;5.51;73.95;99258.88;1087513;54;20054;-77
2022/04/05 04:26:51;;;;;;;10.93;6.88;;;;;;;5.49;74.07;99259.97;1087278;54;20046;-78
2022/04/05 04:27:52;;;;;;;10.02;7.10;;;;;;;5.40;74.17;99258.94;1086921;54;20065;-78
2022/04/05 04:29:02;;;;;;;10.15;6.72;;;;;;;5.37;74.22;99254.75;1086984;54;20083;-78
2022/04/05 04:30:04;;;;;;;8.80;6.60;;;;;;;5.39;74.14;99268.69;1087009;54;20054;-78
2022/04/05 04:31:08;;;;;;;8.60;6.38;;;;;;;5.48;74.10;99264.44;1087060;54;20063;-78
2022/04/05 04:32:10;;;;;;;13.13;6.70;;;;;;;5.40;74.15;99259.78;1087542;39;20508;-78
2022/04/05 04:33:17;;;;;;;9.98;6.50;;;;;;;5.46;74.14;99261.06;1086894;47;20033;-78
2022/04/05 04:34:18;;;;;;;9.32;6.28;;;;;;;5.39;74.28;99257.28;1087361;39;20644;-79
2022/04/05 04:35:23;;;;;;;10.55;6.38;;;;;;;5.37;74.15;99257.41;1087063;54;20092;-78
2022/04/05 04:36:24;;;;;;;9.77;6.80;;;;;;;5.33;74.31;99255.16;1087180;54;20034;-79
2022/04/05 04:37:28;;;;;;;9.75;6.07;;;;;;;5.52;73.91;99254.41;1087369;54;20054;-78
2022/04/05 04:38:30;;;;;;;10.55;6.18;;;;;;;5.50;73.79;99259.84;1087487;46;20030;-78
2022/04/05 04:39:36;;;;;;;10.02;6.55;;;;;;;5.43;74.12;99262.19;1088978;39;20425;-79
2022/04/05 04:40:38;;;;;;;12.15;6.60;;;;;;;5.28;75.04;99264.31;1087302;54;20058;-78
2022/04/05 04:41:42;;;;;;;10.98;7.00;;;;;;;5.24;75.03;99267.38;1087157;54;20057;-78
2022/04/05 04:42:47;;;;;;;10.25;6.95;;;;;;;5.26;74.90;99260.94;1087635;54;20042;-78
2022/04/05 04:43:49;;;;;;;8.90;6.65;;;;;;;5.28;75.01;99263.50;1087665;54;20041;-78
2022/04/05 04:44:53;;;;;;;10.00;6.75;;;;;;;5.32;75.16;99270.19;1087830;54;20026;-77
2022/04/05 04:45:55;;;;;;;11.45;6.90;;;;;;;5.25;75.23;99269.03;1088095;54;20065;-78
2022/04/05 04:46:59;;;;;;;11.80;6.22;;;;;;;5.23;75.43;99265.69;1088026;54;20034;-78
2022/04/05 04:48:00;;;;;;;12.18;7.10;;;;;;;5.20;75.59;99271.22;1087701;54;20027;-79
2022/04/05 04:49:07;;;;;;;13.35;6.65;;;;;;;5.25;75.29;99264.56;1087748;54;20030;-79
2022/04/05 04:50:11;;;;;;;9.93;6.70;;;;;;;5.19;75.78;99266.94;1088081;54;20022;-78
2022/04/05 04:51:15;;;;;;;10.40;6.82;;;;;;;5.21;76.22;99271.13;1089233;46;20115;-76
2022/04/05 04:52:16;;;;;;;10.38;7.28;;;;;;;5.20;76.15;99268.56;1087458;54;20038;-79
2022/04/05 04:53:21;;;;;;;11.38;7.60;;;;;;;5.14;76.34;99265.50;1087305;54;20030;-78
2022/04/05 04:54:25;;;;;;;8.57;6.45;;;;;;;5.14;76.55;99267.31;1087649;54;20074;-78
2022/04/05 04:55:29;;;;;;;8.23;6.03;;;;;;;5.28;76.16;99269.63;1087716;46;20026;-80
2022/04/05 04:56:31;;;;;;;11.30;6.63;;;;;;;5.27;76.18;99272.41;1087807;54;20037;-79
2022/04/05 04:57:35;;;;;;;8.93;6.53;;;;;;;5.24;76.37;99277.97;1087471;54;20030;-78
2022/04/05 04:58:37;;;;;;;9.90;6.70;;;;;;;5.29;76.44;99275.78;1087348;54;20026;-78
2022/04/05 04:59:41;;;;;;;10.18;6.82;;;;;;;5.18;76.71;99276.66;1088257;39;20405;-78
2022/04/05 05:00:44;;;;;;;9.45;6.40;;;;;;;5.25;76.58;99279.66;1087095;54;20948;-77
2022/04/05 05:01:48;;;;;;;9.68;7.13;;;;;;;5.33;76.28;99279.84;1087261;54;20670;-77
2022/04/05 05:02:51;;;;;;;8.98;6.43;;;;;;;5.38;76.05;99280.31;1087338;54;20057;-78
2022/04/05 05:03:55;;;;;;;7.47;5.65;;;;;;;5.43;76.15;99271.97;1087337;54;20615;-78
2022/04/05 05:04:59;;;;;;;9.75;6.18;;;;;;;5.36;76.36;99274.28;1087571;54;20057;-77
2022/04/05 05:06:04;;;;;;;10.68;6.72;;;;;;;5.32;76.80;99278.16;1087254;54;20061;-78
2022/04/05 05:07:08;;;;;;;9.80;6.93;;;;;;;5.26;76.92;99281.31;1087203;54;20038;-78
2022/04/05 05:08:10;;;;;;;10.85;6.97;;;;;;;5.25;77.10;99275.16;1087699;54;20042;-77
2022/04/05 05:09:14;;;;;;;10.48;7.03;;;;;;;5.27;77.28;99277.72;1087306;54;20037;-78
2022/04/05 05:10:16;;;;;;;9.02;7.03;;;;;;;5.23;77.38;99278.94;1087753;54;20035;-78
2022/04/05 05:11:20;;;;;;;9.15;6.60;;;;;;;5.23;77.13;99277.13;1087626;54;20038;-78
2022/04/05 05:12:22;;;;;;;9.88;6.53;;;;;;;5.26;77.30;99286.63;1087572;39;20500;-78
2022/04/05 05:13:28;;;;;;;9.88;7.03;;;;;;;5.26;77.41;99282.16;1087051;54;20038;-78
2022/04/05 05:14:30;;;;;;;10.18;7.53;;;;;;;5.28;77.17;99274.09;1087247;54;20042;-79
2022/04/05 05:15:35;;;;;;;13.60;9.00;;;;;;;5.33;77.28;99269.22;1087683;39;20516;-78
2022/04/05 05:16:39;;;;;;;13.45;8.02;;;;;;;5.24;78.16;99281.44;1087369;54;20725;-78
2022/04/05 05:17:41;;;;;;;13.75;7.68;;;;;;;5.39;77.42;99271.34;1087334;54;20038;-77
2022/04/05 05:18:45;;;;;;;11.30;7.10;;;;;;;5.44;76.92;99278.91;1087507;54;20034;-78
2022/04/05 05:19:46;;;;;;;9.85;7.22;;;;;;;5.26;77.66;99276.03;1088885;46;20042;-78
2022/04/05 05:20:53;;;;;;;10.10;6.70;;;;;;;5.33;77.39;99271.06;1088723;39;20493;-78
2022/04/05 05:21:58;;;;;;;10.05;6.55;;;;;;;5.32;77.58;99275.50;1087680;54;20038;-77
2022/04/05 05:22:59;;;;;;;8.45;6.80;;;;;;;5.26;77.94;99281.31;1087699;54;20042;-77
2022/04/05 05:24:03;;;;;;;10.90;7.13;;;;;;;5.29;78.02;99278.44;1087694;54;20030;-77
2022/04/05 05:25:13;;;;;;;10.38;7.18;;;;;;;5.26;78.50;99281.31;1087649;54;20038;-77
2022/04/05 05:26:17;;;;;;;12.30;7.63;;;;;;;5.21;78.41;99273.78;1087775;54;20034;-77
2022/04/05 05:27:24;;;;;;;10.35;6.93;;;;;;;5.19;78.74;99286.31;1089194;46;20038;-76
2022/04/05 05:28:26;;;;;;;11.23;7.95;;;;;;;5.24;78.66;99277.97;1088162;46;20030;-77
2022/04/05 05:29:30;;;;;;;10.00;7.68;;;;;;;5.13;79.52;99281.53;1087740;54;20035;-77
2022/04/05 05:30:32;;;;;;;12.23;7.78;;;;;;;5.20;79.15;99287.13;1087537;54;20045;-78
2022/04/05 05:31:36;;;;;;;8.85;6.68;;;;;;;5.22;79.01;99288.69;1087603;54;20041;-77
2022/04/05 05:32:42;;;;;;;11.23;7.28;;;;;;;5.16;79.50;99281.25;1087989;46;20039;-77
2022/04/05 05:33:46;;;;;;;9.20;6.70;;;;;;;5.18;79.45;99283.78;1087592;54;20102;-78
2022/04/05 05:34:48;;;;;;;10.32;7.78;;;;;;;5.27;79.04;99289.13;1086273;54;20054;-79
2022/04/05 05:35:54;;;;;;;12.27;7.45;;;;;;;5.28;78.85;99284.69;1086656;54;20066;-81
2022/04/05 05:36:56;;;;;;;10.25;7.53;;;;;;;5.27;79.08;99280.38;1086464;54;20548;-77
2022/04/05 05:38:00;;;;;;;10.70;8.05;;;;;;;5.26;79.07;99283.97;1086431;54;20038;-79
2022/04/05 05:39:05;;;;;;;11.90;6.78;;;;;;;5.18;79.40;99278.50;1086335;54;20038;-80
2022/04/05 05:40:12;;;;;;;11.48;7.22;;;;;;;5.11;79.79;99286.09;1086237;54;20640;-80
2022/04/05 05:41:16;;;;;;;9.88;7.18;;;;;;;5.16;79.66;99291.84;1086266;54;20038;-79
2022/04/05 05:42:17;;;;;;;13.05;7.88;;;;;;;5.09;79.91;99280.94;1086496;54;20045;-80
2022/04/05 05:43:24;;;;;;;13.40;7.88;;;;;;;5.20;79.81;99280.03;1086721;54;20042;-79